Time;durP1;ratioP1;P1;durP2;ratioP2;P2;SDS_P1;SDS_P2;PMS_P1;PMS_P2;Temp;Humidity;BMP_temperature;BMP_pressure;BME280_temperature;BME280_humidity;BME280_pressure;Samples;Min_cycle;Max_cycle;Signal;HPM_P1;HPM_P2
2023/10/04 00:00:49;;;;;;;17.83;3.90;;;;;;;11.48;100.00;102352.31;5073311;28;20024;-63
2023/10/04 00:03:15;;;;;;;21.23;3.90;;;;;;;11.48;100.00;102357.63;5073185;28;20051;-63
2023/10/04 00:05:41;;;;;;;15.90;3.83;;;;;;;11.44;100.00;102353.09;5073472;28;20472;-65
2023/10/04 00:08:06;;;;;;;18.40;3.70;;;;;;;11.47;100.00;102362.88;5073208;28;20102;-66
2023/10/04 00:10:33;;;;;;;17.38;3.50;;;;;;;11.48;100.00;102357.63;5073421;28;20467;-67
2023/10/04 00:12:59;;;;;;;19.20;3.95;;;;;;;11.44;100.00;102365.47;5073292;28;20029;-68
2023/10/04 00:15:27;;;;;;;17.50;3.97;;;;;;;11.41;100.00;102366.28;5072949;28;20447;-67
2023/10/04 00:17:52;;;;;;;17.42;3.67;;;;;;;11.45;100.00;102367.25;5072921;28;20028;-68
2023/10/04 00:20:19;;;;;;;17.40;3.85;;;;;;;11.54;100.00;102366.59;5073139;28;20024;-67
2023/10/04 00:22:46;;;;;;;18.80;4.10;;;;;;;11.62;100.00;102368.56;5072928;28;20032;-68
2023/10/04 00:25:16;;;;;;;17.35;4.03;;;;;;;11.67;100.00;102379.25;5073161;28;20037;-68
2023/10/04 00:27:42;;;;;;;18.83;3.83;;;;;;;11.75;100.00;102371.50;5072982;28;20571;-67
2023/10/04 00:30:13;;;;;;;18.48;3.75;;;;;;;11.72;100.00;102367.00;5071533;28;20442;-67
2023/10/04 00:32:39;;;;;;;20.48;4.20;;;;;;;11.62;100.00;102359.69;5072637;28;20045;-70
2023/10/04 00:35:17;;;;;;;17.83;3.80;;;;;;;11.57;100.00;102358.72;5073342;28;20570;-69
2023/10/04 00:37:42;;;;;;;19.73;4.15;;;;;;;11.60;100.00;102358.78;5070656;28;20032;-69
2023/10/04 00:40:18;;;;;;;19.20;3.92;;;;;;;11.60;100.00;102358.78;5071356;28;20081;-68
2023/10/04 00:42:44;;;;;;;17.75;3.85;;;;;;;11.63;100.00;102357.09;5072939;28;20024;-69
2023/10/04 00:45:13;;;;;;;18.08;4.05;;;;;;;11.62;100.00;102363.28;5072779;28;20029;-68
2023/10/04 00:47:47;;;;;;;19.77;4.10;;;;;;;11.56;100.00;102365.75;5072827;28;20037;-68
2023/10/04 00:50:17;;;;;;;17.77;3.90;;;;;;;11.50;100.00;102370.91;5072643;28;20040;-69
2023/10/04 00:52:47;;;;;;;20.23;4.10;;;;;;;11.48;100.00;102378.81;5072569;28;20510;-65
2023/10/04 00:55:17;;;;;;;19.23;3.97;;;;;;;11.55;100.00;102376.31;5072726;28;20077;-65
2023/10/04 00:57:42;;;;;;;19.63;4.10;;;;;;;11.56;100.00;102380.75;5072408;28;20112;-64
2023/10/04 01:00:10;;;;;;;18.58;4.07;;;;;;;11.55;100.00;102385.16;5072663;28;20107;-64
2023/10/04 01:02:36;;;;;;;19.90;4.38;;;;;;;11.53;100.00;102392.16;5072947;28;20387;-65
2023/10/04 01:05:03;;;;;;;17.92;4.00;;;;;;;11.52;100.00;102398.34;5068612;28;20033;-65
2023/10/04 01:07:30;;;;;;;17.77;3.83;;;;;;;11.45;100.00;102388.44;5074354;28;20036;-64
2023/10/04 01:09:55;;;;;;;18.13;3.90;;;;;;;11.41;100.00;102382.16;5076779;28;20037;-63
2023/10/04 01:12:24;;;;;;;20.20;4.05;;;;;;;11.41;100.00;102382.16;5075214;28;20135;-65
2023/10/04 01:14:53;;;;;;;20.23;4.03;;;;;;;11.40;100.00;102383.03;5076556;28;20031;-64
2023/10/04 01:17:19;;;;;;;18.65;4.30;;;;;;;11.33;100.00;102389.03;5076660;28;20082;-65
2023/10/04 01:19:44;;;;;;;19.50;4.07;;;;;;;11.33;100.00;102389.03;5076408;28;20475;-63
2023/10/04 01:22:11;;;;;;;16.92;4.18;;;;;;;11.39;100.00;102393.56;5076313;28;20510;-64
2023/10/04 01:24:41;;;;;;;18.63;3.90;;;;;;;11.37;100.00;102400.56;5076544;28;20033;-65
2023/10/04 01:27:07;;;;;;;18.23;4.20;;;;;;;11.33;100.00;102399.63;5072951;28;20063;-62
2023/10/04 01:29:33;;;;;;;18.27;4.20;;;;;;;11.34;100.00;102401.38;5072338;28;20060;-64
2023/10/04 01:31:58;;;;;;;21.02;4.60;;;;;;;11.33;100.00;102404.91;5076344;28;20060;-64
2023/10/04 01:34:23;;;;;;;18.75;4.60;;;;;;;11.29;100.00;102403.03;5076029;28;20114;-63
2023/10/04 01:36:49;;;;;;;19.17;4.22;;;;;;;11.26;100.00;102400.31;5076062;28;20479;-64
2023/10/04 01:39:19;;;;;;;18.50;4.07;;;;;;;11.25;100.00;102406.44;5074997;28;20388;-65
2023/10/04 01:41:45;;;;;;;20.15;4.72;;;;;;;11.21;100.00;102400.16;5075843;28;20032;-65
2023/10/04 01:44:10;;;;;;;19.20;4.10;;;;;;;11.25;100.00;102396.75;5075968;28;20028;-65
2023/10/04 01:46:37;;;;;;;20.25;4.70;;;;;;;11.25;100.00;102401.16;5074917;28;20536;-64
2023/10/04 01:49:04;;;;;;;19.52;4.30;;;;;;;11.24;100.00;102407.28;5071777;28;20024;-63
2023/10/04 01:51:30;;;;;;;20.60;4.47;;;;;;;11.27;100.00;102412.66;5075678;28;20044;-65
2023/10/04 01:53:59;;;;;;;18.45;4.10;;;;;;;11.26;100.00;102408.25;5075935;28;20020;-65
2023/10/04 01:56:25;;;;;;;18.48;4.10;;;;;;;11.24;100.00;102400.28;5075629;28;20028;-69
2023/10/04 01:58:51;;;;;;;17.27;4.18;;;;;;;11.25;100.00;102402.03;5075664;28;20494;-69
2023/10/04 02:01:17;;;;;;;20.20;4.72;;;;;;;11.26;100.00;102397.66;5074502;28;20031;-69
2023/10/04 02:03:42;;;;;;;18.52;4.85;;;;;;;11.25;100.00;102398.50;5075502;28;20036;-67
2023/10/04 02:06:08;;;;;;;22.92;4.90;;;;;;;11.26;100.00;102398.56;5075490;28;20472;-68
2023/10/04 02:08:34;;;;;;;20.92;4.70;;;;;;;11.31;100.00;102402.22;5075790;28;20086;-69
2023/10/04 02:10:59;;;;;;;18.85;4.10;;;;;;;11.26;100.00;102393.25;5075371;28;20032;-69
2023/10/04 02:13:26;;;;;;;20.25;4.15;;;;;;;11.30;100.00;102400.44;5075312;28;20029;-69
2023/10/04 02:15:51;;;;;;;20.92;4.50;;;;;;;11.31;100.00;102396.00;5075532;28;20376;-69
2023/10/04 02:18:21;;;;;;;19.23;4.40;;;;;;;11.31;100.00;102404.88;5074307;28;20035;-69
2023/10/04 02:20:48;;;;;;;18.08;4.28;;;;;;;11.31;100.00;102394.28;5075403;28;20048;-69
2023/10/04 02:23:18;;;;;;;19.15;4.38;;;;;;;11.33;100.00;102399.63;5075665;28;20352;-69
2023/10/04 02:25:44;;;;;;;17.88;4.25;;;;;;;11.36;100.00;102393.47;5075221;28;20051;-70
2023/10/04 02:28:11;;;;;;;19.67;4.18;;;;;;;11.34;100.00;102390.78;5075239;28;20060;-70
2023/10/04 02:30:40;;;;;;;19.92;4.47;;;;;;;11.34;100.00;102389.06;5075319;28;20119;-70
2023/10/04 02:33:13;;;;;;;19.42;4.07;;;;;;;11.36;100.00;102388.19;5071408;28;20045;-70
2023/10/04 02:35:46;;;;;;;17.95;3.97;;;;;;;11.37;100.00;102393.53;5071800;28;20028;-69
2023/10/04 02:38:26;;;;;;;20.05;4.53;;;;;;;11.38;100.00;102386.50;5075232;28;20036;-69
2023/10/04 02:40:52;;;;;;;19.27;4.38;;;;;;;11.39;100.00;102397.13;5074716;28;20052;-63
2023/10/04 02:43:20;;;;;;;19.13;4.22;;;;;;;11.39;100.00;102401.50;5075108;28;20098;-65
2023/10/04 02:45:47;;;;;;;20.23;4.25;;;;;;;11.39;100.00;102398.84;5074800;28;20021;-63
2023/10/04 02:48:13;;;;;;;20.88;4.53;;;;;;;11.37;100.00;102403.22;5075061;28;20021;-65
2023/10/04 02:50:41;;;;;;;19.20;4.35;;;;;;;11.34;100.00;102407.59;5074902;28;20075;-63
2023/10/04 02:53:13;;;;;;;19.48;4.45;;;;;;;11.28;100.00;102407.41;5074694;28;20467;-64
2023/10/04 02:55:39;;;;;;;;;;;;;;;11.27;100.00;102410.03;5071813;28;20162;-65
2023/10/04 02:58:06;;;;;;;18.38;4.20;;;;;;;11.28;100.00;102409.19;5074859;28;19982;-65
2023/10/04 03:00:33;;;;;;;19.75;4.32;;;;;;;11.30;100.00;102411.00;5074429;28;20028;-63
2023/10/04 03:02:58;;;;;;;17.20;4.03;;;;;;;11.29;100.00;102417.16;5074491;28;20033;-64
2023/10/04 03:05:28;;;;;;;20.88;4.30;;;;;;;11.29;100.00;102410.97;5074597;28;20029;-64
2023/10/04 03:07:55;;;;;;;19.83;4.20;;;;;;;11.27;100.00;102415.31;5074445;28;20541;-63
2023/10/04 03:10:24;;;;;;;20.65;4.68;;;;;;;11.18;100.00;102410.66;5074569;28;20031;-64
2023/10/04 03:12:54;;;;;;;18.45;4.30;;;;;;;11.14;100.00;102412.34;5074480;28;20107;-63
2023/10/04 03:15:23;;;;;;;20.73;4.40;;;;;;;11.15;100.00;102426.47;5074425;28;20020;-63
2023/10/04 03:17:52;;;;;;;20.00;4.20;;;;;;;11.08;100.00;102438.66;5074266;28;20043;-63
2023/10/04 03:20:23;;;;;;;20.25;4.38;;;;;;;11.05;100.00;102441.19;5074088;28;20392;-62
2023/10/04 03:22:50;;;;;;;21.20;4.20;;;;;;;10.98;100.00;102433.97;5074307;28;20479;-64
2023/10/04 03:25:17;;;;;;;19.52;4.65;;;;;;;10.91;100.00;102432.91;5074036;28;20016;-65
2023/10/04 03:27:43;;;;;;;19.80;4.50;;;;;;;10.87;100.00;102424.84;5073913;28;20029;-64
2023/10/04 03:30:14;;;;;;;20.23;4.60;;;;;;;10.86;100.00;102434.50;5074232;28;20391;-64
2023/10/04 03:32:55;;;;;;;20.90;4.88;;;;;;;10.78;100.00;102441.34;5073866;28;20391;-62
2023/10/04 03:35:22;;;;;;;20.40;4.90;;;;;;;10.76;100.00;102433.34;5073927;28;20021;-64
2023/10/04 03:37:54;;;;;;;20.02;4.97;;;;;;;10.69;100.00;102435.75;5073709;28;20476;-65
2023/10/04 03:40:21;;;;;;;20.67;4.90;;;;;;;10.66;100.00;102440.97;5073693;28;20035;-63
2023/10/04 03:42:46;;;;;;;21.92;5.13;;;;;;;10.65;100.00;102434.78;5073862;28;20489;-62
2023/10/04 03:45:13;;;;;;;20.08;4.75;;;;;;;10.62;100.00;102434.69;5073575;28;20048;-63
2023/10/04 03:47:39;;;;;;;21.50;4.90;;;;;;;10.52;100.00;102430.88;5073815;28;20016;-62
2023/10/04 03:50:09;;;;;;;18.73;4.80;;;;;;;10.53;100.00;102445.00;5073577;28;20023;-63
2023/10/04 03:52:34;;;;;;;20.98;4.90;;;;;;;10.52;100.00;102432.63;5069543;28;20036;-62
2023/10/04 03:55:00;;;;;;;21.63;4.88;;;;;;;10.51;100.00;102430.84;5073593;28;20434;-69
2023/10/04 03:57:25;;;;;;;21.83;4.80;;;;;;;10.48;100.00;102414.88;5073396;28;20087;-69
2023/10/04 03:59:51;;;;;;;21.85;5.18;;;;;;;10.41;100.00;102422.63;5073632;28;20471;-69
2023/10/04 04:02:16;;;;;;;20.75;4.82;;;;;;;10.36;100.00;102420.72;5072197;28;20036;-69
2023/10/04 04:04:41;;;;;;;19.40;4.50;;;;;;;10.32;100.00;102417.03;5073459;28;20132;-69
2023/10/04 04:07:07;;;;;;;21.17;4.90;;;;;;;10.34;100.00;102423.31;5071933;28;20024;-69
2023/10/04 04:09:33;;;;;;;19.10;4.93;;;;;;;10.29;100.00;102424.88;5073422;28;20022;-68
2023/10/04 04:11:58;;;;;;;20.75;5.38;;;;;;;10.26;100.00;102436.22;5073173;28;20032;-69
2023/10/04 04:14:23;;;;;;;21.83;5.30;;;;;;;10.20;100.00;102440.44;5071719;28;20020;-69
2023/10/04 04:16:51;;;;;;;20.60;5.00;;;;;;;10.17;100.00;102429.78;5072049;28;20545;-69
2023/10/04 04:19:19;;;;;;;21.70;5.15;;;;;;;10.16;100.00;102428.88;5073012;28;20021;-69
2023/10/04 04:21:44;;;;;;;20.23;5.22;;;;;;;10.16;100.00;102425.34;5072840;28;20030;-67
2023/10/04 04:24:10;;;;;;;22.25;5.20;;;;;;;10.11;100.00;102430.50;5073447;28;20390;-67
2023/10/04 04:26:35;;;;;;;21.23;5.35;;;;;;;10.08;100.00;102420.72;5073020;28;20056;-68
2023/10/04 04:29:01;;;;;;;22.38;5.50;;;;;;;10.05;100.00;102420.63;5073111;28;20060;-67
2023/10/04 04:31:26;;;;;;;22.52;5.78;;;;;;;10.03;100.00;102418.75;5073258;28;20029;-67
2023/10/04 04:33:53;;;;;;;19.88;5.07;;;;;;;9.94;100.00;102420.25;5072684;28;20047;-63
2023/10/04 04:36:25;;;;;;;20.95;5.35;;;;;;;9.86;100.00;102418.22;5072705;28;20029;-65
2023/10/04 04:38:52;;;;;;;21.25;5.40;;;;;;;9.82;100.00;102422.50;5073008;28;20028;-65
2023/10/04 04:41:24;;;;;;;22.83;5.22;;;;;;;9.79;100.00;102430.34;5072056;28;20025;-64
2023/10/04 04:43:50;;;;;;;20.85;5.15;;;;;;;9.77;100.00;102427.66;5072597;28;20032;-63
2023/10/04 04:46:16;;;;;;;22.05;5.68;;;;;;;9.79;100.00;102429.47;5072815;28;20093;-64
2023/10/04 04:48:43;;;;;;;22.83;5.43;;;;;;;9.77;100.00;102419.72;5072503;28;20395;-63
2023/10/04 04:51:12;;;;;;;21.42;5.45;;;;;;;9.81;100.00;102415.44;5072791;28;20033;-62
2023/10/04 04:53:42;;;;;;;21.20;5.65;;;;;;;9.77;100.00;102421.47;5069099;28;20077;-64
2023/10/04 04:56:15;;;;;;;23.10;5.47;;;;;;;9.76;100.00;102423.22;5069397;28;20416;-64
2023/10/04 04:58:42;;;;;;;22.05;5.57;;;;;;;9.72;100.00;102416.03;5069246;28;20101;-63
2023/10/04 05:01:13;;;;;;;22.65;5.60;;;;;;;9.75;100.00;102417.88;5072363;28;20117;-64
2023/10/04 05:03:44;;;;;;;22.85;5.50;;;;;;;9.77;100.00;102422.38;5068999;28;20115;-62
2023/10/04 05:06:20;;;;;;;21.40;5.30;;;;;;;9.76;100.00;102425.84;5068885;28;20051;-61
2023/10/04 05:08:46;;;;;;;21.27;5.35;;;;;;;9.74;100.00;102440.75;5072381;28;20468;-62
2023/10/04 05:11:11;;;;;;;22.33;5.53;;;;;;;9.74;100.00;102451.31;5072446;28;20081;-63
2023/10/04 05:13:36;;;;;;;22.42;5.50;;;;;;;9.70;100.00;102453.81;5072511;28;20399;-62
2023/10/04 05:16:04;;;;;;;22.15;5.55;;;;;;;9.64;100.00;102458.88;5072299;28;20043;-67
2023/10/04 05:18:30;;;;;;;22.52;5.55;;;;;;;9.65;100.00;102460.69;5072492;28;20036;-66
2023/10/04 05:20:55;;;;;;;21.63;5.65;;;;;;;9.64;100.00;102470.34;5072709;28;20035;-66
2023/10/04 05:23:25;;;;;;;22.13;5.88;;;;;;;9.63;100.00;102473.81;5069612;28;20025;-66
2023/10/04 05:25:52;;;;;;;20.15;5.53;;;;;;;9.60;100.00;102465.81;5071413;28;20104;-66
2023/10/04 05:28:18;;;;;;;22.75;5.68;;;;;;;9.55;100.00;102472.66;5072302;28;20036;-65
2023/10/04 05:30:45;;;;;;;22.80;5.93;;;;;;;9.51;100.00;102478.66;5072091;28;20047;-66
2023/10/04 05:33:15;;;;;;;22.27;5.60;;;;;;;9.53;100.00;102466.44;5071762;28;20044;-65
2023/10/04 05:35:43;;;;;;;21.23;5.75;;;;;;;9.52;100.00;102464.63;5072333;28;20086;-67
2023/10/04 05:38:11;;;;;;;23.70;5.55;;;;;;;9.46;100.00;102469.72;5071710;28;20452;-66
2023/10/04 05:40:38;;;;;;;24.35;6.03;;;;;;;9.42;100.00;102472.25;5071878;28;20115;-66
2023/10/04 05:43:06;;;;;;;21.98;5.75;;;;;;;9.42;100.00;102469.59;5069107;28;20472;-65
2023/10/04 05:45:32;;;;;;;26.30;5.95;;;;;;;9.42;100.00;102481.88;5071840;28;20037;-68
2023/10/04 05:47:59;;;;;;;22.40;5.80;;;;;;;9.43;100.00;102483.69;5071740;28;20031;-66
2023/10/04 05:50:25;;;;;;;21.20;5.50;;;;;;;9.43;100.00;102487.22;5065505;28;20050;-65
2023/10/04 05:52:52;;;;;;;23.15;5.90;;;;;;;9.40;100.00;102489.75;5065090;28;20029;-68
2023/10/04 05:55:19;;;;;;;20.52;5.72;;;;;;;9.42;100.00;102492.44;5071464;28;20032;-63
2023/10/04 05:57:46;;;;;;;24.00;5.85;;;;;;;9.48;100.00;102499.69;5075668;28;20024;-63
2023/10/04 06:03:00;;;;;;;22.83;5.80;;;;;;;9.49;100.00;102498.84;5072702;28;20035;-62
2023/10/04 06:05:27;;;;;;;22.08;5.60;;;;;;;9.54;100.00;102505.22;5075519;28;20056;-65
2023/10/04 06:07:54;;;;;;;22.00;5.53;;;;;;;9.56;100.00;102509.66;5075461;28;20032;-68
2023/10/04 06:10:20;;;;;;;20.17;5.38;;;;;;;9.53;100.00;102504.28;5075518;28;20029;-66
2023/10/04 06:12:47;;;;;;;22.83;5.72;;;;;;;9.53;100.00;102504.28;5073865;28;20029;-66
2023/10/04 06:15:18;;;;;;;22.08;5.50;;;;;;;9.56;100.00;102512.31;5071002;28;20115;-65
2023/10/04 06:17:45;;;;;;;21.45;5.60;;;;;;;9.59;100.00;102511.53;5075340;28;20506;-67
2023/10/04 06:22:57;;;;;;;22.30;5.55;;;;;;;9.65;100.00;102514.38;5075406;28;20490;-61
2023/10/04 06:25:24;;;;;;;20.98;5.25;;;;;;;9.71;100.00;102519.88;5075312;28;20417;-62
2023/10/04 06:27:54;;;;;;;23.63;5.75;;;;;;;9.71;100.00;102517.25;5073509;28;20028;-62
2023/10/04 06:30:22;;;;;;;21.20;5.63;;;;;;;9.75;100.00;102521.75;5074957;28;20138;-62
2023/10/04 06:32:52;;;;;;;21.10;5.50;;;;;;;9.76;100.00;102523.56;5074932;28;20399;-61
2023/10/04 06:35:22;;;;;;;21.23;5.50;;;;;;;9.79;100.00;102528.06;5073984;28;20040;-63
2023/10/04 06:37:48;;;;;;;23.42;6.03;;;;;;;9.81;100.00;102528.13;5074770;28;20025;-62
2023/10/04 06:40:19;;;;;;;23.25;5.80;;;;;;;9.86;100.00;102523.88;5072937;28;20028;-61
2023/10/04 06:42:48;;;;;;;22.15;5.72;;;;;;;9.89;100.00;102531.94;5074939;28;20029;-62
2023/10/04 06:45:18;;;;;;;20.45;5.13;;;;;;;9.92;100.00;102530.28;5075113;28;20020;-62
2023/10/04 06:47:45;;;;;;;22.17;5.50;;;;;;;9.99;100.00;102533.13;5074878;28;20021;-61
2023/10/04 06:50:15;;;;;;;23.45;5.88;;;;;;;10.04;100.00;102535.06;5074729;28;20029;-61
2023/10/04 06:53:02;;;;;;;21.25;5.43;;;;;;;10.10;100.00;102540.56;5074911;28;20028;-63
2023/10/04 06:55:28;;;;;;;20.80;5.40;;;;;;;10.20;100.00;102546.16;5072120;28;20021;-62
2023/10/04 06:57:55;;;;;;;20.20;5.20;;;;;;;10.30;100.00;102538.56;5074656;28;20033;-65
2023/10/04 07:00:22;;;;;;;21.13;5.43;;;;;;;10.38;100.00;102546.81;5074555;28;20063;-61
2023/10/04 07:02:53;;;;;;;22.40;5.35;;;;;;;10.49;100.00;102547.13;5070633;28;20515;-64
2023/10/04 07:05:24;;;;;;;20.35;5.15;;;;;;;10.60;100.00;102535.16;5069952;28;20024;-62
2023/10/04 07:07:53;;;;;;;21.33;5.30;;;;;;;10.71;100.00;102546.03;5070595;28;20527;-64
2023/10/04 07:10:20;;;;;;;21.05;5.10;;;;;;;10.84;100.00;102530.56;5070691;28;20427;-64
2023/10/04 07:12:47;;;;;;;21.75;5.25;;;;;;;10.93;100.00;102531.72;5074688;28;20033;-65
2023/10/04 07:15:13;;;;;;;21.95;5.57;;;;;;;11.09;100.00;102540.13;5074541;28;20021;-64
2023/10/04 07:17:40;;;;;;;21.73;5.00;;;;;;;11.22;100.00;102530.78;5074266;28;20020;-63
2023/10/04 07:20:08;;;;;;;19.17;5.25;;;;;;;11.35;100.00;102530.28;5074546;28;20426;-62
2023/10/04 07:22:36;;;;;;;21.17;5.13;;;;;;;11.50;100.00;102525.41;5074062;28;20124;-62
2023/10/04 07:25:02;;;;;;;20.83;5.45;;;;;;;11.58;100.00;102532.66;5074008;28;20027;-68
2023/10/04 07:27:27;;;;;;;21.05;5.20;;;;;;;11.66;100.00;102525.81;5074223;28;20388;-67
2023/10/04 07:29:53;;;;;;;20.33;4.68;;;;;;;11.72;100.00;102530.38;5073986;28;20044;-67
2023/10/04 07:32:20;;;;;;;20.73;5.10;;;;;;;11.83;100.00;102519.19;5068885;28;20079;-67
2023/10/04 07:34:45;;;;;;;19.63;4.88;;;;;;;11.96;100.00;102516.91;5074477;28;20088;-67
2023/10/04 07:37:10;;;;;;;21.70;5.00;;;;;;;12.09;100.00;102523.41;5072435;28;20063;-68
2023/10/04 07:39:36;;;;;;;22.10;5.00;;;;;;;12.17;100.00;102530.69;5073749;28;20025;-67
2023/10/04 07:42:02;;;;;;;22.17;5.68;;;;;;;12.29;100.00;102534.47;5073827;28;20083;-66
2023/10/04 07:44:30;;;;;;;22.20;5.00;;;;;;;12.44;100.00;102532.22;5072390;28;20471;-68
2023/10/04 07:46:59;;;;;;;19.15;4.75;;;;;;;12.54;100.00;102534.22;5073614;28;20039;-67
2023/10/04 07:49:24;;;;;;;20.77;4.88;;;;;;;12.66;100.00;102535.34;5072468;28;20479;-67
2023/10/04 07:51:50;;;;;;;21.10;4.93;;;;;;;12.69;100.00;102535.41;5072640;28;20033;-68
2023/10/04 07:54:18;;;;;;;21.20;4.90;;;;;;;12.82;100.00;102552.53;5073512;28;20127;-67
2023/10/04 07:56:44;;;;;;;21.25;4.90;;;;;;;13.01;100.00;102556.47;5073675;28;20032;-67
2023/10/04 07:59:10;;;;;;;19.63;5.05;;;;;;;13.10;100.00;102548.69;5073431;28;20103;-66
2023/10/04 08:01:39;;;;;;;21.55;4.90;;;;;;;13.16;100.00;102547.91;5073534;28;20043;-64
2023/10/04 08:04:04;;;;;;;19.58;4.75;;;;;;;13.19;100.00;102548.91;5073491;28;20028;-63
2023/10/04 08:06:30;;;;;;;20.27;4.97;;;;;;;13.24;100.00;102547.22;5073246;28;20407;-65
2023/10/04 08:08:55;;;;;;;20.88;5.10;;;;;;;13.34;100.00;102558.97;5073225;28;20483;-67
2023/10/04 08:11:21;;;;;;;21.05;4.97;;;;;;;13.38;100.00;102549.28;5073572;28;20029;-68
2023/10/04 08:13:46;;;;;;;20.13;4.70;;;;;;;13.45;100.00;102556.50;5072959;28;20468;-69
2023/10/04 08:16:13;;;;;;;20.65;5.03;;;;;;;13.39;100.00;102548.41;5072509;28;20028;-67
2023/10/04 08:18:39;;;;;;;19.55;4.80;;;;;;;13.43;100.00;102552.94;5072916;28;20059;-69
2023/10/04 08:21:07;;;;;;;19.50;4.75;;;;;;;13.55;100.00;102563.78;5071765;28;20064;-67
2023/10/04 08:23:33;;;;;;;19.65;4.90;;;;;;;13.59;100.00;102555.00;5072628;28;20032;-67
2023/10/04 08:25:59;;;;;;;20.13;5.28;;;;;;;13.59;100.00;102564.75;5072456;28;20510;-67
2023/10/04 08:28:24;;;;;;;21.15;4.78;;;;;;;13.59;100.00;102559.44;5072515;28;20036;-69
2023/10/04 08:30:51;;;;;;;20.08;4.80;;;;;;;13.58;100.00;102569.16;5072604;28;20375;-67
2023/10/04 08:33:19;;;;;;;21.45;5.20;;;;;;;13.54;100.00;102550.47;5072497;28;20438;-69
2023/10/04 08:35:46;;;;;;;20.50;4.82;;;;;;;13.69;100.00;102565.81;5071342;28;20183;-70
2023/10/04 08:38:12;;;;;;;20.35;4.50;;;;;;;14.00;100.00;102572.59;5070421;28;20020;-68
2023/10/04 08:40:38;;;;;;;20.40;4.95;;;;;;;13.99;100.00;102561.94;5071885;28;20485;-66
2023/10/04 08:43:05;;;;;;;21.80;5.13;;;;;;;14.06;100.00;102569.13;5072422;28;20126;-69
2023/10/04 08:45:33;;;;;;;21.42;4.70;;;;;;;14.12;100.00;102574.56;5072645;28;20040;-68
2023/10/04 08:47:59;;;;;;;21.90;4.88;;;;;;;14.24;100.00;102565.88;5072443;28;20028;-68
2023/10/04 08:50:40;;;;;;;18.63;4.38;;;;;;;14.37;100.00;102575.88;5072547;28;20021;-70
2023/10/04 08:53:36;;;;;;;19.55;4.57;;;;;;;14.61;100.00;102567.41;5071174;28;20032;-61
2023/10/04 08:56:13;;;;;;;21.98;5.32;;;;;;;14.80;100.00;102570.34;5070569;28;20036;-62
2023/10/04 08:58:43;;;;;;;20.65;4.93;;;;;;;14.94;100.00;102566.09;5072622;28;20424;-62
2023/10/04 09:01:11;;;;;;;20.00;4.50;;;;;;;15.03;100.00;102568.00;5072390;28;20029;-64
2023/10/04 09:03:40;;;;;;;20.38;4.53;;;;;;;15.10;100.00;102571.59;5071916;28;20037;-65
2023/10/04 09:06:10;;;;;;;19.27;4.85;;;;;;;15.16;100.00;102572.59;5072316;28;20127;-63
2023/10/04 09:08:40;;;;;;;19.45;4.32;;;;;;;15.22;100.00;102573.53;5072226;28;20498;-61
2023/10/04 09:11:10;;;;;;;21.67;4.75;;;;;;;15.38;100.00;102577.28;5072428;28;20032;-62
2023/10/04 09:13:44;;;;;;;21.65;4.53;;;;;;;15.43;100.00;102573.78;5072004;28;20024;-63
2023/10/04 09:16:17;;;;;;;19.02;4.43;;;;;;;15.46;100.00;102571.16;5067978;28;20028;-66
2023/10/04 09:18:42;;;;;;;19.83;4.35;;;;;;;15.60;100.00;102566.00;5070966;28;20029;-63
2023/10/04 09:21:15;;;;;;;22.38;4.60;;;;;;;15.74;100.00;102567.91;5072420;28;20119;-65
2023/10/04 09:23:43;;;;;;;21.20;4.65;;;;;;;15.89;100.00;102572.53;5072083;28;20028;-65
2023/10/04 09:26:16;;;;;;;18.10;3.97;;;;;;;15.97;100.00;102553.03;5072116;28;20540;-64
2023/10/04 09:28:41;;;;;;;20.35;4.45;;;;;;;15.95;100.00;102552.16;5074047;28;20044;-63
2023/10/04 09:31:12;;;;;;;19.67;4.40;;;;;;;16.39;100.00;102559.59;5076323;28;20033;-64
2023/10/04 09:33:38;;;;;;;19.38;4.55;;;;;;;16.51;100.00;102550.81;5075854;28;20028;-65
2023/10/04 09:36:04;;;;;;;18.90;4.18;;;;;;;16.61;100.00;102551.75;5076051;28;20027;-63
2023/10/04 09:38:31;;;;;;;20.20;4.55;;;;;;;16.70;100.00;102566.94;5076248;28;20029;-66
2023/10/04 09:40:59;;;;;;;20.40;4.70;;;;;;;16.53;100.00;102565.06;5074271;28;20064;-68
2023/10/04 09:43:32;;;;;;;20.67;4.47;;;;;;;16.69;100.00;102570.50;5075883;28;20114;-68
2023/10/04 09:45:58;;;;;;;20.83;4.40;;;;;;;16.55;100.00;102565.06;5076044;28;20115;-68
2023/10/04 09:48:25;;;;;;;20.85;4.68;;;;;;;16.42;100.00;102572.09;5075777;28;20500;-66
2023/10/04 09:50:59;;;;;;;18.55;4.28;;;;;;;16.44;100.00;102569.44;5075739;28;20525;-66
2023/10/04 09:53:24;;;;;;;20.02;4.55;;;;;;;16.62;100.00;102563.34;5076282;28;20033;-68
2023/10/04 09:55:50;;;;;;;19.98;4.38;;;;;;;17.03;100.00;102552.91;5075769;28;20360;-66
2023/10/04 09:58:23;;;;;;;19.02;4.10;;;;;;;16.98;100.00;102568.03;5075776;28;20032;-68
2023/10/04 10:00:52;;;;;;;20.33;4.50;;;;;;;16.87;100.00;102551.00;5072312;28;20028;-67
2023/10/04 10:03:23;;;;;;;20.48;4.60;;;;;;;17.05;100.00;102556.50;5075835;28;20029;-68
2023/10/04 10:05:50;;;;;;;18.67;4.22;;;;;;;17.25;100.00;102564.56;5075607;28;20029;-68
2023/10/04 10:08:19;;;;;;;22.23;4.68;;;;;;;17.07;100.00;102567.19;5075775;28;20108;-67
2023/10/04 10:10:45;;;;;;;19.40;4.10;;;;;;;17.31;100.00;102563.69;5066502;28;20108;-68
2023/10/04 10:13:13;;;;;;;19.08;4.20;;;;;;;17.31;100.00;102577.06;5052169;28;20163;-66
2023/10/04 10:15:38;;;;;;;19.10;4.20;;;;;;;17.30;100.00;102569.94;5074936;28;20047;-68
2023/10/04 10:18:07;;;;;;;19.55;4.28;;;;;;;17.33;100.00;102572.63;5074078;28;20028;-68
2023/10/04 10:20:33;;;;;;;20.85;4.43;;;;;;;17.06;100.00;102581.41;5075034;28;20032;-68
2023/10/04 10:22:59;;;;;;;19.60;4.78;;;;;;;17.06;100.00;102574.28;5075328;28;20028;-68
2023/10/04 10:25:32;;;;;;;19.25;4.22;;;;;;;17.20;100.00;102578.81;5074114;28;20029;-70
2023/10/04 10:28:00;;;;;;;19.63;4.70;;;;;;;17.36;100.00;102566.41;5075509;28;20024;-66
2023/10/04 10:30:25;;;;;;;18.83;4.18;;;;;;;17.38;100.00;102557.47;5075309;28;20487;-66
2023/10/04 10:32:55;;;;;;;17.30;4.03;;;;;;;17.19;100.00;102561.00;5075054;28;20037;-68
2023/10/04 10:36:06;;;;;;;19.58;4.40;;;;;;;17.27;100.00;102563.69;5075162;28;20106;-65
2023/10/04 10:38:40;;;;;;;20.45;4.32;;;;;;;18.21;100.00;102566.56;5074354;28;20049;-66
2023/10/04 10:41:31;;;;;;;18.08;4.43;;;;;;;18.82;100.00;102571.81;5073860;28;20064;-64
2023/10/04 10:44:20;;;;;;;18.88;4.70;;;;;;;19.12;100.00;102558.34;5072327;28;20032;-65
2023/10/04 10:46:52;;;;;;;18.88;4.40;;;;;;;19.21;100.00;102560.09;5072038;28;20032;-64
2023/10/04 10:49:36;;;;;;;21.90;4.50;;;;;;;19.49;100.00;102556.38;5075077;28;20059;-66
2023/10/04 10:52:02;;;;;;;19.27;4.60;;;;;;;19.41;100.00;102554.63;5072213;28;20028;-65
2023/10/04 10:54:28;;;;;;;16.95;4.03;;;;;;;19.00;100.00;102578.03;5074417;28;20074;-61
2023/10/04 10:56:53;;;;;;;18.75;4.35;;;;;;;18.38;100.00;102555.84;5074153;28;20021;-61
2023/10/04 10:59:18;;;;;;;18.27;4.20;;;;;;;18.72;100.00;102561.13;5074665;28;20028;-64
2023/10/04 11:01:44;;;;;;;18.48;4.28;;;;;;;19.21;100.00;102552.03;5074336;28;20032;-63
2023/10/04 11:04:09;;;;;;;19.00;4.38;;;;;;;19.45;100.00;102551.91;5074731;28;20048;-64
2023/10/04 11:06:35;;;;;;;20.45;4.40;;;;;;;19.36;100.00;102535.88;5065931;28;20032;-66
2023/10/04 11:09:01;;;;;;;18.50;4.25;;;;;;;19.16;100.00;102544.94;5072732;28;20483;-64
2023/10/04 11:11:27;;;;;;;19.63;4.38;;;;;;;19.22;100.00;102532.38;5074188;28;20112;-63
2023/10/04 11:13:53;;;;;;;18.67;4.38;;;;;;;19.52;100.00;102526.84;5074327;28;20116;-64
2023/10/04 11:16:21;;;;;;;19.42;4.20;;;;;;;19.59;100.00;102527.72;5073779;28;20472;-63
2023/10/04 11:18:47;;;;;;;17.60;4.65;;;;;;;19.84;100.00;102522.19;5073503;28;20025;-64
2023/10/04 11:21:13;;;;;;;18.48;4.50;;;;;;;20.07;100.00;102515.75;5065245;28;20039;-62